Time;durP1;ratioP1;P1;durP2;ratioP2;P2;SDS_P1;SDS_P2;PMS_P1;PMS_P2;Temp;Humidity;BMP_temperature;BMP_pressure;BME280_temperature;BME280_humidity;BME280_pressure;Samples;Min_cycle;Max_cycle;Signal;HPM_P1;HPM_P2
2022/06/28 00:00:17;;;;;;;2.20;2.03;;;18.40;99.90;;;;;;5051140;28;20712;-78
2022/06/28 00:02:43;;;;;;;1.65;1.55;;;18.40;99.90;;;;;;5037631;28;20039;-78
2022/06/28 00:05:10;;;;;;;1.90;1.80;;;18.40;99.90;;;;;;5069817;28;20032;-78
2022/06/28 00:07:36;;;;;;;1.85;1.70;;;18.40;99.90;;;;;;5059617;28;20036;-79
2022/06/28 00:10:03;;;;;;;2.20;2.00;;;18.40;99.90;;;;;;5053724;28;20486;-79
2022/06/28 00:12:29;;;;;;;1.83;1.73;;;18.50;99.90;;;;;;5088687;28;20036;-79
2022/06/28 00:17:40;;;;;;;2.20;2.00;;;18.40;99.90;;;;;;5049548;28;20459;-78
2022/06/28 00:20:06;;;;;;;2.28;1.80;;;18.40;99.90;;;;;;5078443;28;20032;-78
2022/06/28 00:22:32;;;;;;;3.20;1.83;;;18.40;99.90;;;;;;5052052;28;20036;-80
2022/06/28 00:24:58;;;;;;;2.63;1.67;;;18.40;99.90;;;;;;5075954;28;20044;-78
2022/06/28 00:27:23;;;;;;;2.75;2.00;;;18.30;99.90;;;;;;5083646;28;20035;-79
2022/06/28 00:29:49;;;;;;;2.05;1.95;;;18.30;99.90;;;;;;5053020;28;20394;-79
2022/06/28 00:32:15;;;;;;;2.88;1.83;;;18.40;99.90;;;;;;5039231;28;20028;-78
2022/06/28 00:34:41;;;;;;;1.90;1.80;;;18.40;99.90;;;;;;5068726;28;20036;-79
2022/06/28 00:37:07;;;;;;;1.77;1.67;;;18.40;99.90;;;;;;5082990;28;20028;-78
2022/06/28 00:39:32;;;;;;;2.00;1.85;;;18.40;99.90;;;;;;5057060;28;20024;-78
2022/06/28 00:41:58;;;;;;;2.83;1.65;;;18.30;99.90;;;;;;5076224;28;20058;-78
2022/06/28 00:44:24;;;;;;;2.10;1.90;;;18.30;99.90;;;;;;5021820;28;20385;-78
2022/06/28 00:46:51;;;;;;;2.05;1.85;;;18.40;99.90;;;;;;5083333;28;20051;-78
2022/06/28 00:49:18;;;;;;;1.85;1.75;;;18.30;99.90;;;;;;5076078;28;20769;-78
2022/06/28 00:51:43;;;;;;;1.80;1.70;;;18.30;99.90;;;;;;5077592;28;20059;-78
2022/06/28 00:54:09;;;;;;;1.70;1.60;;;18.30;99.90;;;;;;5088039;28;20032;-79
2022/06/28 00:56:35;;;;;;;1.77;1.67;;;18.30;99.90;;;;;;5058171;28;20028;-78
2022/06/28 00:59:01;;;;;;;1.95;1.75;;;18.20;99.90;;;;;;5077426;28;20513;-78
2022/06/28 01:01:27;;;;;;;1.83;1.73;;;18.20;99.90;;;;;;5077621;28;20083;-78
2022/06/28 01:03:55;;;;;;;2.42;1.95;;;18.20;99.90;;;;;;5050913;28;20037;-79
2022/06/28 01:06:21;;;;;;;1.65;1.55;;;18.20;99.90;;;;;;5089941;28;20039;-79
2022/06/28 01:08:48;;;;;;;2.60;1.92;;;18.20;99.90;;;;;;5064215;28;20043;-78
2022/06/28 01:11:20;;;;;;;2.10;1.95;;;18.10;99.90;;;;;;5068095;28;20055;-78
2022/06/28 01:13:59;;;;;;;1.90;1.80;;;18.10;99.90;;;;;;5069007;28;20028;-79
2022/06/28 01:16:30;;;;;;;1.88;1.73;;;18.10;99.90;;;;;;5058169;28;20504;-79
2022/06/28 01:19:06;;;;;;;2.05;1.83;;;18.00;99.90;;;;;;5049252;28;20036;-78
2022/06/28 01:21:37;;;;;;;2.55;2.00;;;18.00;99.90;;;;;;5076550;28;20037;-78
2022/06/28 01:24:04;;;;;;;1.90;1.70;;;17.90;99.90;;;;;;5065267;28;20108;-79
2022/06/28 01:26:45;;;;;;;4.88;1.95;;;17.90;99.90;;;;;;5069995;28;20032;-79
2022/06/28 01:29:11;;;;;;;2.20;2.00;;;17.80;99.90;;;;;;5068995;28;20075;-78
2022/06/28 01:31:46;;;;;;;2.47;2.28;;;17.80;99.90;;;;;;5045271;28;20028;-78
2022/06/28 01:34:14;;;;;;;2.15;1.92;;;17.70;99.90;;;;;;5060120;28;20085;-79
2022/06/28 01:36:41;;;;;;;1.80;1.70;;;17.70;99.90;;;;;;5059684;28;20017;-80
2022/06/28 01:39:07;;;;;;;1.90;1.70;;;17.60;99.90;;;;;;5046729;28;20119;-79
2022/06/28 01:41:32;;;;;;;2.42;2.15;;;17.60;99.90;;;;;;5067717;28;20068;-78
2022/06/28 01:44:06;;;;;;;2.30;2.10;;;17.60;99.90;;;;;;5045055;28;20040;-79
2022/06/28 01:46:36;;;;;;;2.65;2.13;;;17.50;99.90;;;;;;5069128;28;20028;-78
2022/06/28 01:49:06;;;;;;;3.90;2.20;;;17.50;99.90;;;;;;5065217;28;20146;-78
2022/06/28 01:51:33;;;;;;;2.45;2.17;;;17.40;99.90;;;;;;5047847;28;20086;-78
2022/06/28 01:54:00;;;;;;;2.63;2.42;;;17.40;99.90;;;;;;5072226;28;20052;-78
2022/06/28 01:56:32;;;;;;;3.05;2.28;;;17.30;99.90;;;;;;5060991;28;20096;-78
2022/06/28 01:59:30;;;;;;;3.78;2.38;;;17.30;99.90;;;;;;5032077;28;20021;-79
2022/06/28 02:02:05;;;;;;;3.13;2.75;;;17.30;99.90;;;;;;5070690;28;20440;-79
2022/06/28 02:05:09;;;;;;;2.60;2.40;;;17.20;99.90;;;;;;5074707;28;20036;-77
2022/06/28 02:07:35;;;;;;;3.38;2.92;;;17.20;99.90;;;;;;5054806;28;20080;-77
2022/06/28 02:10:01;;;;;;;2.63;2.30;;;17.10;99.90;;;;;;5073647;28;20672;-79
2022/06/28 02:12:28;;;;;;;2.58;2.38;;;17.10;99.90;;;;;;5064705;28;20032;-79
2022/06/28 02:14:56;;;;;;;3.08;2.78;;;17.00;99.90;;;;;;5062512;28;20040;-79
2022/06/28 02:17:22;;;;;;;3.15;2.35;;;17.00;99.90;;;;;;5068684;28;20036;-77
2022/06/28 02:19:47;;;;;;;2.60;2.40;;;17.00;99.90;;;;;;5078197;28;20038;-78
2022/06/28 02:22:13;;;;;;;2.63;2.42;;;16.90;99.90;;;;;;5085200;28;20043;-77
2022/06/28 02:24:40;;;;;;;6.30;2.40;;;16.90;99.90;;;;;;5070599;28;20498;-78
2022/06/28 02:27:06;;;;;;;2.53;2.33;;;16.90;99.90;;;;;;5089180;28;20123;-77
2022/06/28 02:29:31;;;;;;;5.22;2.72;;;16.80;99.90;;;;;;5067388;28;20052;-78
2022/06/28 02:31:57;;;;;;;2.42;2.22;;;16.80;99.90;;;;;;5078792;28;20431;-78
2022/06/28 02:42:36;;;;;;;2.90;2.67;;;16.60;99.90;;;;;;5050414;28;20441;-78
2022/06/28 02:45:02;;;;;;;3.13;2.67;;;16.50;99.90;;;;;;5071238;28;20024;-79
2022/06/28 02:47:28;;;;;;;2.80;2.60;;;16.50;99.90;;;;;;5077592;28;20024;-79
2022/06/28 02:49:54;;;;;;;3.28;2.63;;;16.50;99.90;;;;;;5060076;28;20489;-78
2022/06/28 02:52:20;;;;;;;2.72;2.53;;;16.50;99.90;;;;;;5078478;28;20047;-78
2022/06/28 02:54:46;;;;;;;3.15;2.30;;;16.40;99.90;;;;;;5067704;28;20070;-79
2022/06/28 02:57:11;;;;;;;4.32;2.30;;;16.40;99.90;;;;;;5066801;28;20031;-79
2022/06/28 02:59:37;;;;;;;3.05;2.38;;;16.40;99.90;;;;;;5044876;28;20033;-79
2022/06/28 03:02:04;;;;;;;2.50;2.30;;;16.40;99.90;;;;;;5044661;28;20059;-78
2022/06/28 03:04:29;;;;;;;3.92;2.45;;;16.40;99.90;;;;;;5045400;28;20033;-80
2022/06/28 03:06:55;;;;;;;2.83;2.50;;;16.30;99.90;;;;;;5070829;28;20024;-78
2022/06/28 03:09:21;;;;;;;3.60;2.58;;;16.30;99.90;;;;;;5038043;28;20162;-78
2022/06/28 03:11:47;;;;;;;2.60;2.40;;;16.30;99.90;;;;;;5078202;28;20493;-79
2022/06/28 03:14:12;;;;;;;2.72;2.53;;;16.30;99.90;;;;;;5039992;28;20398;-79
2022/06/28 03:16:38;;;;;;;4.47;2.30;;;16.20;99.90;;;;;;5056662;28;20025;-79
2022/06/28 03:19:04;;;;;;;3.60;2.50;;;16.20;99.90;;;;;;5076506;28;20044;-79
2022/06/28 03:21:30;;;;;;;4.63;2.50;;;16.20;99.90;;;;;;5074951;28;20040;-78
2022/06/28 03:23:55;;;;;;;2.70;2.50;;;16.20;99.90;;;;;;5066313;28;20036;-78
2022/06/28 03:26:23;;;;;;;1.95;1.85;;;16.20;99.90;;;;;;5064967;28;20055;-79
2022/06/28 03:28:49;;;;;;;2.80;2.55;;;16.20;99.90;;;;;;5047194;28;20654;-78
2022/06/28 03:31:15;;;;;;;3.08;2.33;;;16.20;99.90;;;;;;5040029;28;20082;-79
2022/06/28 03:33:41;;;;;;;3.03;2.50;;;16.20;99.90;;;;;;5074809;28;20024;-78
2022/06/28 03:36:07;;;;;;;2.85;2.53;;;16.20;99.90;;;;;;5054487;28;20037;-79
2022/06/28 03:38:37;;;;;;;3.13;2.50;;;16.10;99.90;;;;;;5027015;28;20119;-80
2022/06/28 03:41:09;;;;;;;3.03;2.80;;;16.10;99.90;;;;;;5066168;28;20531;-80
2022/06/28 03:43:37;;;;;;;3.10;2.45;;;16.10;99.90;;;;;;5052812;28;20032;-80
2022/06/28 03:46:02;;;;;;;3.10;2.85;;;16.20;99.90;;;;;;5055823;28;20036;-79
2022/06/28 03:48:42;;;;;;;3.08;2.70;;;16.20;99.90;;;;;;5069900;28;20047;-79
2022/06/28 03:51:31;;;;;;;2.70;2.50;;;16.20;99.90;;;;;;5069409;28;20625;-78
2022/06/28 03:54:19;;;;;;;2.97;2.53;;;16.20;99.90;;;;;;5051654;28;20036;-79
2022/06/28 03:56:51;;;;;;;2.97;2.67;;;16.20;99.90;;;;;;5053281;28;20123;-79
2022/06/28 03:59:19;;;;;;;2.17;2.05;;;16.20;99.90;;;;;;5040827;28;20029;-79
2022/06/28 04:01:44;;;;;;;2.33;2.10;;;16.20;99.90;;;;;;5038846;28;20075;-79
2022/06/28 04:04:10;;;;;;;2.60;2.40;;;16.10;99.90;;;;;;5046049;28;20455;-79
2022/06/28 04:06:40;;;;;;;2.53;2.33;;;16.10;99.90;;;;;;5072905;28;20058;-79
2022/06/28 04:09:06;;;;;;;5.28;2.40;;;16.10;99.90;;;;;;5050700;28;20433;-79
2022/06/28 04:11:32;;;;;;;2.55;2.35;;;16.20;99.90;;;;;;5052162;28;20040;-79
2022/06/28 04:13:58;;;;;;;2.65;2.45;;;16.10;99.90;;;;;;5052197;28;20051;-79
2022/06/28 04:16:24;;;;;;;1.85;1.75;;;16.20;99.90;;;;;;5069763;28;20050;-79
2022/06/28 04:18:54;;;;;;;2.35;2.15;;;16.20;99.90;;;;;;5064534;28;20502;-80
2022/06/28 04:21:27;;;;;;;3.85;2.13;;;16.20;99.90;;;;;;5061618;28;20047;-79
2022/06/28 04:24:02;;;;;;;2.08;1.95;;;16.20;99.90;;;;;;5067230;23;20051;-81
2022/06/28 04:26:28;;;;;;;2.47;2.28;;;16.20;99.90;;;;;;5047934;28;20044;-82
2022/06/28 04:28:54;;;;;;;2.45;2.25;;;16.20;99.90;;;;;;5082065;28;20036;-82
2022/06/28 04:31:23;;;;;;;2.60;2.25;;;16.20;99.90;;;;;;5054833;28;20028;-82
2022/06/28 04:33:51;;;;;;;3.38;2.45;;;16.20;99.90;;;;;;5060193;28;20035;-82
2022/06/28 04:36:21;;;;;;;2.60;2.40;;;16.30;99.90;;;;;;5054398;28;20355;-82
2022/06/28 04:38:48;;;;;;;2.80;2.60;;;16.30;99.90;;;;;;5024082;28;20514;-82
2022/06/28 04:41:17;;;;;;;3.30;3.03;;;16.40;99.90;;;;;;5045163;28;20040;-82
2022/06/28 04:43:48;;;;;;;3.08;2.63;;;16.40;99.90;;;;;;5044966;28;20493;-83
2022/06/28 04:46:23;;;;;;;3.28;3.03;;;16.50;99.90;;;;;;5065294;28;20044;-82
2022/06/28 04:48:50;;;;;;;2.67;2.47;;;16.60;99.90;;;;;;5042711;28;20032;-82
2022/06/28 04:51:20;;;;;;;4.10;2.70;;;16.80;99.90;;;;;;5048151;28;20025;-82
2022/06/28 04:53:50;;;;;;;4.80;2.85;;;16.90;99.90;;;;;;5044592;28;20513;-82
2022/06/28 04:56:18;;;;;;;2.90;2.60;;;17.10;99.90;;;;;;5057344;28;20107;-83
2022/06/28 04:58:46;;;;;;;4.07;2.95;;;17.20;99.90;;;;;;5053276;28;20517;-83
2022/06/28 05:01:12;;;;;;;2.65;2.45;;;17.30;99.90;;;;;;5060347;28;20132;-82
2022/06/28 05:03:38;;;;;;;3.88;2.70;;;17.30;99.90;;;;;;5006365;28;20060;-83
2022/06/28 05:06:40;;;;;;;7.60;3.50;;;17.30;99.90;;;;;;4984510;28;20121;-82
2022/06/28 05:09:07;;;;;;;4.40;3.58;;;17.30;99.90;;;;;;5031683;28;20056;-82
2022/06/28 05:11:33;;;;;;;4.78;3.60;;;17.30;99.90;;;;;;5062355;28;20143;-81
2022/06/28 05:13:59;;;;;;;5.10;4.53;;;17.30;99.90;;;;;;5058030;28;20057;-82
2022/06/28 05:16:26;;;;;;;4.35;3.95;;;17.40;99.90;;;;;;5054852;28;20043;-83
2022/06/28 05:18:52;;;;;;;4.07;3.60;;;17.40;99.90;;;;;;5048495;28;20055;-82
2022/06/28 05:21:26;;;;;;;4.93;4.43;;;17.50;99.90;;;;;;5073285;28;20064;-82
2022/06/28 05:23:52;;;;;;;5.15;4.03;;;17.70;99.90;;;;;;5086720;28;20567;-82
2022/06/28 05:26:37;;;;;;;4.40;4.00;;;17.70;99.90;;;;;;5046957;28;20032;-83
2022/06/28 05:29:30;;;;;;;4.18;3.75;;;17.80;99.90;;;;;;5065125;28;20064;-82
2022/06/28 05:31:57;;;;;;;3.58;3.25;;;17.90;99.90;;;;;;5067909;28;20070;-83
2022/06/28 05:34:22;;;;;;;4.30;3.88;;;18.00;99.90;;;;;;5061823;28;20082;-83
2022/06/28 05:36:48;;;;;;;4.72;3.55;;;18.10;99.90;;;;;;5061354;28;20032;-83
2022/06/28 05:39:15;;;;;;;3.78;3.47;;;18.20;99.90;;;;;;5039502;28;20036;-83
2022/06/28 05:41:44;;;;;;;4.10;3.53;;;18.30;99.90;;;;;;5063731;28;20028;-82
2022/06/28 05:44:10;;;;;;;4.22;3.88;;;18.30;99.90;;;;;;5079912;28;20069;-82
2022/06/28 05:46:39;;;;;;;5.43;3.50;;;18.30;99.90;;;;;;5049985;28;20037;-83
2022/06/28 05:49:06;;;;;;;4.00;3.60;;;18.40;99.90;;;;;;5072346;28;20052;-83
2022/06/28 05:51:32;;;;;;;4.63;3.40;;;18.50;99.90;;;;;;5056734;28;20490;-83
2022/06/28 05:53:59;;;;;;;5.50;3.63;;;18.50;99.90;;;;;;5054786;28;20040;-83
2022/06/28 05:56:25;;;;;;;3.92;3.47;;;18.60;99.90;;;;;;5053542;28;20028;-82
2022/06/28 05:58:51;;;;;;;4.03;3.65;;;18.70;99.90;;;;;;5050269;28;20517;-83
2022/06/28 06:01:16;;;;;;;3.47;3.17;;;18.90;99.90;;;;;;5070672;28;20036;-82
2022/06/28 06:03:42;;;;;;;3.80;3.42;;;19.50;99.90;;;;;;5047310;28;20032;-83
2022/06/28 06:06:08;;;;;;;3.70;3.20;;;20.30;99.90;;;;;;5051244;28;20028;-83
2022/06/28 06:08:35;;;;;;;3.05;2.75;;;21.10;99.90;;;;;;5039377;28;20032;-83
2022/06/28 06:11:03;;;;;;;2.38;2.28;;;21.90;99.90;;;;;;5062120;28;20025;-82
2022/06/28 06:13:29;;;;;;;2.72;2.53;;;22.70;99.90;;;;;;5054108;28;20028;-82
2022/06/28 06:15:55;;;;;;;2.85;2.65;;;23.30;99.90;;;;;;5070950;28;20034;-81
2022/06/28 06:18:21;;;;;;;3.65;3.35;;;23.70;99.90;;;;;;5028843;28;20028;-82
2022/06/28 06:20:47;;;;;;;3.55;3.25;;;24.20;99.90;;;;;;5048001;28;20060;-82
2022/06/28 06:23:13;;;;;;;2.78;2.47;;;24.60;99.90;;;;;;5049158;28;20044;-83
2022/06/28 06:25:59;;;;;;;2.88;2.67;;;25.00;99.90;;;;;;4998407;28;20032;-81
2022/06/28 06:28:26;;;;;;;3.25;2.78;;;25.40;99.90;;;;;;5036141;28;20028;-82
2022/06/28 06:30:51;;;;;;;3.65;3.05;;;25.60;97.10;;;;;;5038795;28;20078;-80
2022/06/28 06:33:22;;;;;;;2.78;2.53;;;25.70;96.90;;;;;;5058543;28;20025;-83
2022/06/28 06:36:07;;;;;;;3.05;2.75;;;25.50;94.80;;;;;;5039248;28;20716;-84
2022/06/28 06:38:33;;;;;;;3.15;2.92;;;25.50;95.00;;;;;;5045292;28;20027;-84
2022/06/28 06:40:59;;;;;;;2.72;2.53;;;25.30;94.20;;;;;;5057694;28;20028;-83
2022/06/28 06:43:27;;;;;;;2.70;2.50;;;24.90;94.50;;;;;;5032972;28;20028;-84
2022/06/28 06:46:05;;;;;;;3.05;2.53;;;24.40;96.50;;;;;;5038774;28;20055;-83
2022/06/28 06:48:30;;;;;;;4.15;2.60;;;23.80;97.10;;;;;;5052918;28;20039;-82
2022/06/28 06:50:56;;;;;;;6.60;4.13;;;23.40;98.60;;;;;;5055296;28;20545;-82
2022/06/28 06:53:23;;;;;;;3.25;2.97;;;23.20;99.50;;;;;;5047173;28;20043;-82
2022/06/28 06:55:49;;;;;;;2.85;2.55;;;23.50;99.80;;;;;;5040190;28;20032;-81
2022/06/28 06:58:15;;;;;;;4.47;2.50;;;23.90;99.50;;;;;;5047276;28;20606;-82
2022/06/28 07:00:42;;;;;;;2.65;2.45;;;24.10;95.80;;;;;;5030916;28;20499;-82
2022/06/28 07:03:08;;;;;;;3.55;2.78;;;24.10;96.00;;;;;;5064174;28;20119;-82
2022/06/28 07:05:39;;;;;;;3.10;2.47;;;23.90;95.50;;;;;;5069020;28;20051;-83
2022/06/28 07:08:05;;;;;;;2.67;2.47;;;23.80;95.60;;;;;;5044734;28;20513;-81
2022/06/28 07:10:37;;;;;;;2.92;2.47;;;23.50;96.00;;;;;;5030125;28;20029;-82
2022/06/28 07:13:03;;;;;;;3.15;2.85;;;23.20;95.50;;;;;;5059903;28;20059;-84
2022/06/28 07:15:29;;;;;;;3.22;2.88;;;23.30;96.90;;;;;;5032685;28;20558;-83
2022/06/28 07:17:55;;;;;;;3.28;2.47;;;23.60;97.50;;;;;;5036680;28;20028;-83
2022/06/28 07:20:21;;;;;;;2.50;2.30;;;24.20;94.80;;;;;;5049584;28;20071;-82
2022/06/28 07:22:47;;;;;;;2.40;2.10;;;24.80;94.20;;;;;;5035915;28;20079;-83
2022/06/28 07:25:18;;;;;;;2.35;2.17;;;25.60;90.90;;;;;;5055188;28;20089;-82
2022/06/28 07:27:44;;;;;;;2.20;2.10;;;26.40;88.00;;;;;;5049406;28;20052;-82
2022/06/28 07:30:10;;;;;;;2.50;2.30;;;27.10;84.20;;;;;;5045927;28;20290;-82
2022/06/28 07:32:36;;;;;;;2.10;2.00;;;27.70;80.40;;;;;;5050184;28;20048;-84
2022/06/28 07:35:03;;;;;;;2.28;2.17;;;28.00;79.40;;;;;;5076279;28;20047;-85
2022/06/28 07:37:29;;;;;;;2.55;2.03;;;28.30;75.80;;;;;;5041009;28;20029;-82
2022/06/28 07:39:56;;;;;;;3.88;2.47;;;28.50;73.90;;;;;;5016321;28;20036;-83
2022/06/28 07:42:40;;;;;;;1.75;1.65;;;28.90;72.30;;;;;;5058643;28;20043;-82
2022/06/28 07:45:24;;;;;;;1.98;1.75;;;29.20;71.30;;;;;;5046264;28;20050;-81
2022/06/28 07:47:58;;;;;;;2.50;2.30;;;29.50;67.40;;;;;;5085390;28;20086;-83
2022/06/28 07:53:12;;;;;;;1.67;1.58;;;29.70;67.00;;;;;;5064568;28;20024;-81
2022/06/28 07:56:01;;;;;;;1.60;1.50;;;29.80;64.60;;;;;;5057947;28;20028;-83
2022/06/28 07:58:31;;;;;;;1.65;1.55;;;29.90;62.00;;;;;;5053212;28;20419;-81
2022/06/28 08:00:59;;;;;;;1.90;1.80;;;29.70;59.90;;;;;;5044184;28;20024;-83
2022/06/28 08:03:25;;;;;;;1.77;1.50;;;29.30;62.10;;;;;;5035469;28;20075;-81
2022/06/28 08:05:50;;;;;;;1.60;1.50;;;29.10;62.00;;;;;;5053764;28;20029;-81
2022/06/28 08:08:17;;;;;;;5.53;3.22;;;29.00;58.90;;;;;;5036755;28;20063;-81
2022/06/28 08:10:43;;;;;;;1.63;1.52;;;28.70;58.20;;;;;;5045274;28;20032;-82
2022/06/28 08:13:12;;;;;;;2.67;1.52;;;27.90;61.80;;;;;;5054891;28;20029;-82
2022/06/28 08:15:39;;;;;;;1.80;1.40;;;27.60;66.20;;;;;;5055406;28;20028;-81
2022/06/28 08:18:06;;;;;;;1.20;1.10;;;27.40;63.60;;;;;;5068084;28;20028;-82
2022/06/28 08:20:31;;;;;;;1.73;1.20;;;27.20;59.20;;;;;;5039314;28;20036;-81
2022/06/28 08:22:58;;;;;;;1.27;1.17;;;27.10;61.70;;;;;;5049012;28;20037;-82
2022/06/28 08:25:24;;;;;;;1.25;1.15;;;27.00;64.30;;;;;;5049312;28;20486;-82
2022/06/28 08:27:50;;;;;;;1.08;1.05;;;26.80;68.50;;;;;;5052501;28;20035;-81
2022/06/28 08:30:18;;;;;;;1.20;1.10;;;26.70;61.00;;;;;;5036535;28;20107;-82
2022/06/28 08:32:43;;;;;;;1.10;1.00;;;26.60;62.20;;;;;;5061688;28;20044;-82
2022/06/28 08:35:09;;;;;;;1.52;1.08;;;26.50;62.10;;;;;;5014932;28;20025;-80
2022/06/28 08:37:35;;;;;;;1.30;1.20;;;26.10;58.80;;;;;;5026279;28;20032;-81
2022/06/28 08:40:01;;;;;;;3.38;1.20;;;26.10;63.80;;;;;;5055859;28;20122;-82
2022/06/28 08:42:30;;;;;;;1.95;1.48;;;26.10;59.50;;;;;;5062470;28;20109;-81
2022/06/28 08:45:00;;;;;;;1.23;1.10;;;25.90;60.00;;;;;;5037798;28;20036;-81
2022/06/28 08:47:33;;;;;;;1.50;1.00;;;25.80;60.40;;;;;;5052492;28;20033;-82
2022/06/28 08:50:04;;;;;;;1.42;1.20;;;25.70;60.80;;;;;;5076743;28;20050;-81
2022/06/28 08:52:33;;;;;;;1.58;1.30;;;25.50;61.80;;;;;;5039695;28;20029;-82
2022/06/28 08:55:00;;;;;;;1.30;1.20;;;25.30;63.60;;;;;;5038873;28;20123;-81
2022/06/28 08:57:30;;;;;;;1.38;1.00;;;25.10;64.00;;;;;;5038019;28;20041;-81
2022/06/28 08:59:57;;;;;;;2.17;1.00;;;25.30;63.70;;;;;;5063681;28;20033;-81
2022/06/28 09:02:23;;;;;;;2.75;1.00;;;25.50;64.00;;;;;;5023349;28;20073;-81
2022/06/28 09:04:51;;;;;;;1.10;1.00;;;25.90;60.70;;;;;;5078423;28;20028;-81
2022/06/28 09:07:17;;;;;;;1.02;1.02;;;26.20;57.70;;;;;;5051638;28;20035;-81
2022/06/28 09:09:44;;;;;;;1.02;1.02;;;26.20;57.00;;;;;;5035306;28;20491;-81
2022/06/28 09:12:10;;;;;;;1.13;1.02;;;26.20;60.80;;;;;;5066718;28;20405;-82
2022/06/28 09:14:35;;;;;;;1.77;1.15;;;26.20;62.40;;;;;;5053211;28;20475;-81
2022/06/28 09:17:26;;;;;;;1.90;1.40;;;26.20;61.70;;;;;;5049257;28;20021;-81
2022/06/28 09:19:59;;;;;;;1.17;0.85;;;26.10;61.00;;;;;;5047239;28;20132;-81
2022/06/28 09:22:34;;;;;;;1.65;0.90;;;25.90;61.00;;;;;;5064208;28;20119;-81
2022/06/28 09:25:02;;;;;;;1.00;1.00;;;25.70;62.30;;;;;;5088800;28;20028;-81
2022/06/28 09:27:33;;;;;;;1.48;1.02;;;25.60;59.90;;;;;;5058664;28;20051;-81
2022/06/28 09:30:00;;;;;;;1.20;1.10;;;25.60;59.70;;;;;;5071688;28;20074;-81
2022/06/28 09:32:29;;;;;;;3.58;1.10;;;25.60;60.50;;;;;;5051650;28;20108;-80
2022/06/28 09:35:01;;;;;;;1.08;1.00;;;25.50;58.70;;;;;;5045623;28;20080;-81
2022/06/28 09:37:47;;;;;;;1.83;1.20;;;25.30;58.40;;;;;;5077324;28;20490;-81
2022/06/28 09:40:22;;;;;;;1.27;1.17;;;25.10;59.50;;;;;;5059360;28;20035;-81
2022/06/28 09:43:09;;;;;;;1.37;1.27;;;25.00;59.10;;;;;;5065529;28;20383;-80
2022/06/28 09:45:37;;;;;;;1.67;1.20;;;25.00;59.00;;;;;;5065443;28;20021;-82
2022/06/28 09:48:04;;;;;;;3.55;1.50;;;24.90;59.60;;;;;;5030174;28;20059;-81
2022/06/28 09:50:32;;;;;;;1.50;1.00;;;24.70;59.80;;;;;;5045300;28;20032;-81
2022/06/28 09:52:59;;;;;;;1.38;1.27;;;24.60;59.90;;;;;;5054928;28;20564;-82
2022/06/28 09:55:27;;;;;;;1.05;1.02;;;24.60;60.60;;;;;;5030034;28;20431;-82
2022/06/28 09:57:54;;;;;;;1.17;1.10;;;24.50;57.30;;;;;;5054317;28;20039;-82
2022/06/28 10:00:21;;;;;;;1.63;1.50;;;24.20;58.10;;;;;;5055186;28;20115;-81
2022/06/28 10:02:48;;;;;;;1.20;1.10;;;24.10;58.00;;;;;;5083449;28;20036;-81
2022/06/28 10:05:14;;;;;;;1.30;1.02;;;23.90;60.00;;;;;;5069648;28;20113;-81
2022/06/28 10:07:40;;;;;;;3.28;1.20;;;23.80;59.00;;;;;;5053984;28;20107;-81
2022/06/28 10:10:10;;;;;;;1.77;1.23;;;23.80;59.00;;;;;;5058264;28;20029;-82
2022/06/28 10:15:24;;;;;;;0.93;0.60;;;24.10;53.80;;;;;;5053455;28;20028;-81
2022/06/28 10:18:04;;;;;;;2.70;1.38;;;24.20;56.60;;;;;;5051466;28;20118;-81
2022/06/28 10:20:32;;;;;;;2.10;1.20;;;24.30;56.90;;;;;;5057490;28;20494;-82
2022/06/28 10:23:23;;;;;;;1.10;1.00;;;24.40;55.20;;;;;;5028239;28;20070;-81
2022/06/28 10:26:05;;;;;;;1.10;1.00;;;24.50;58.00;;;;;;5041092;28;20401;-81
2022/06/28 10:28:43;;;;;;;1.00;0.88;;;24.60;57.70;;;;;;5072507;28;20032;-81
2022/06/28 10:31:24;;;;;;;1.13;0.90;;;24.70;53.80;;;;;;5029622;28;20491;-83
2022/06/28 10:33:51;;;;;;;0.95;0.80;;;24.70;55.00;;;;;;5052730;28;20029;-86
2022/06/28 10:36:19;;;;;;;1.13;1.10;;;24.70;55.70;;;;;;5025883;28;20033;-82
2022/06/28 10:39:07;;;;;;;1.33;1.17;;;24.80;55.10;;;;;;5035735;28;20059;-85
2022/06/28 10:41:41;;;;;;;2.50;1.20;;;24.90;56.40;;;;;;5068193;28;20025;-83
2022/06/28 10:44:10;;;;;;;2.67;1.50;;;25.00;55.90;;;;;;5051262;28;20031;-80
2022/06/28 10:46:37;;;;;;;2.10;1.42;;;25.00;57.20;;;;;;5045035;28;20361;-83
2022/06/28 10:49:10;;;;;;;1.52;1.05;;;25.10;56.60;;;;;;5058919;28;20131;-83
2022/06/28 10:51:41;;;;;;;1.60;1.30;;;25.20;56.80;;;;;;5058853;28;20039;-80
2022/06/28 10:54:10;;;;;;;1.88;1.50;;;25.30;56.90;;;;;;5037129;28;20099;-81
2022/06/28 10:56:43;;;;;;;1.85;1.60;;;25.30;56.40;;;;;;5039384;28;20037;-80
2022/06/28 10:59:12;;;;;;;1.65;1.40;;;25.30;55.60;;;;;;5047411;28;20036;-83
2022/06/28 11:01:43;;;;;;;2.40;1.70;;;25.20;58.50;;;;;;5052339;28;20025;-82
2022/06/28 11:04:18;;;;;;;2.00;1.60;;;25.00;55.50;;;;;;5050865;28;20079;-81
2022/06/28 11:06:47;;;;;;;1.92;1.80;;;24.80;58.40;;;;;;5088250;22;20048;-83
2022/06/28 11:09:38;;;;;;;1.80;1.70;;;24.80;56.30;;;;;;5074225;28;20051;-82
2022/06/28 11:12:10;;;;;;;1.58;1.35;;;24.70;57.20;;;;;;5084801;28;20340;-81
2022/06/28 11:14:52;;;;;;;1.65;1.52;;;24.60;59.30;;;;;;5100756;28;20507;-82
2022/06/28 11:17:31;;;;;;;1.65;1.42;;;24.60;61.70;;;;;;5051839;28;20032;-81
2022/06/28 11:20:18;;;;;;;1.63;1.50;;;24.70;56.60;;;;;;5064917;28;20032;-81
2022/06/28 11:22:47;;;;;;;1.63;1.52;;;24.80;58.90;;;;;;5056573;28;20037;-82
2022/06/28 11:25:15;;;;;;;2.72;1.65;;;25.00;56.20;;;;;;5067674;28;20028;-82
2022/06/28 11:27:56;;;;;;;1.48;1.17;;;25.10;56.60;;;;;;5052009;28;20036;-81
2022/06/28 11:30:26;;;;;;;1.40;1.30;;;25.20;54.80;;;;;;5080019;28;20379;-80
2022/06/28 11:32:55;;;;;;;1.98;1.20;;;25.30;53.40;;;;;;5061890;28;20056;-81
2022/06/28 11:35:31;;;;;;;1.27;1.17;;;25.30;54.50;;;;;;5047687;28;20117;-81
2022/06/28 11:38:03;;;;;;;1.05;1.00;;;25.50;54.20;;;;;;5060159;28;20028;-82
2022/06/28 11:40:51;;;;;;;2.00;1.17;;;25.60;52.00;;;;;;5059407;28;20036;-82
2022/06/28 11:43:25;;;;;;;1.38;1.10;;;25.80;50.80;;;;;;5061363;28;20033;-80
2022/06/28 11:45:52;;;;;;;2.25;1.00;;;25.90;47.50;;;;;;5061596;28;20482;-81
2022/06/28 11:48:34;;;;;;;0.98;0.98;;;25.70;49.50;;;;;;5063663;28;20028;-80
2022/06/28 11:51:00;;;;;;;1.10;1.02;;;25.70;51.60;;;;;;5050466;28;20029;-82
2022/06/28 11:53:30;;;;;;;3.28;1.00;;;25.70;52.40;;;;;;5060442;28;20079;-81
2022/06/28 11:55:58;;;;;;;0.90;0.90;;;25.80;50.40;;;;;;5058220;28;20025;-82
2022/06/28 11:58:26;;;;;;;1.70;0.95;;;26.00;53.10;;;;;;5064214;28;20032;-83
2022/06/28 12:01:14;;;;;;;0.82;0.82;;;26.20;52.60;;;;;;5067316;28;20509;-80
2022/06/28 12:03:43;;;;;;;2.30;1.10;;;26.40;51.00;;;;;;5063361;28;20394;-83
2022/06/28 12:06:36;;;;;;;0.80;0.80;;;26.60;50.00;;;;;;5076376;28;20041;-82
2022/06/28 12:09:04;;;;;;;0.80;0.80;;;26.80;49.20;;;;;;5067097;28;20062;-81
2022/06/28 12:12:06;;;;;;;2.38;1.35;;;26.90;50.10;;;;;;5055912;28;20084;-80
2022/06/28 12:14:33;;;;;;;1.20;1.10;;;27.00;48.90;;;;;;5077346;28;20040;-81
2022/06/28 12:17:02;;;;;;;1.60;1.50;;;27.00;48.40;;;;;;5049493;28;20086;-82
2022/06/28 12:19:33;;;;;;;3.92;1.38;;;27.00;50.30;;;;;;5048594;28;20198;-81
2022/06/28 12:22:08;;;;;;;2.03;1.80;;;26.80;49.70;;;;;;5054367;28;20561;-81
2022/06/28 12:24:47;;;;;;;1.60;1.50;;;26.80;49.00;;;;;;5059695;28;20041;-81
2022/06/28 12:27:19;;;;;;;1.50;1.30;;;26.80;52.40;;;;;;5080123;28;20567;-80
2022/06/28 12:29:45;;;;;;;1.42;1.30;;;27.00;52.80;;;;;;5065558;28;20036;-82
2022/06/28 12:32:11;;;;;;;1.60;1.50;;;27.30;53.10;;;;;;5049249;28;20524;-82
2022/06/28 12:34:40;;;;;;;1.77;1.25;;;27.40;52.00;;;;;;5064315;28;20028;-82
2022/06/28 12:37:06;;;;;;;2.28;1.58;;;27.60;53.40;;;;;;5050027;28;20020;-83
2022/06/28 12:39:32;;;;;;;1.70;1.60;;;27.80;52.00;;;;;;5066814;28;20107;-82
2022/06/28 12:41:58;;;;;;;3.15;1.60;;;27.70;50.50;;;;;;5064205;28;20541;-82
2022/06/28 12:44:23;;;;;;;1.70;1.60;;;27.80;50.90;;;;;;5064625;28;20060;-83
2022/06/28 12:46:51;;;;;;;2.00;1.80;;;27.90;50.00;;;;;;5059961;28;20033;-83
2022/06/28 12:49:18;;;;;;;2.15;1.48;;;28.10;50.10;;;;;;5033116;28;20029;-81
2022/06/28 12:51:45;;;;;;;1.70;1.60;;;28.30;49.50;;;;;;5066386;28;20098;-82
2022/06/28 12:54:10;;;;;;;1.50;1.40;;;28.50;48.60;;;;;;5066512;28;20071;-82
2022/06/28 12:56:36;;;;;;;1.80;1.70;;;28.60;47.80;;;;;;5056508;28;20037;-82
2022/06/28 12:59:02;;;;;;;1.65;1.55;;;28.70;49.40;;;;;;5052233;28;20041;-81
2022/06/28 13:01:28;;;;;;;5.10;1.85;;;28.60;46.80;;;;;;5067483;28;20036;-82
2022/06/28 13:03:54;;;;;;;1.77;1.58;;;28.30;48.50;;;;;;5050055;28;20705;-82
2022/06/28 13:06:21;;;;;;;1.70;1.50;;;28.20;51.10;;;;;;5051633;28;20499;-81
2022/06/28 13:08:47;;;;;;;2.08;1.88;;;28.20;48.90;;;;;;5045527;28;20086;-81
2022/06/28 13:11:13;;;;;;;1.63;1.50;;;28.20;49.20;;;;;;5049518;28;20143;-81
2022/06/28 13:13:39;;;;;;;8.02;2.15;;;28.30;49.80;;;;;;5066529;28;20041;-82
2022/06/28 13:16:06;;;;;;;1.83;1.40;;;28.40;46.80;;;;;;5054094;28;20098;-83